KDFW/DFW METAR and TAF weather

Enter ICAO airport designator
Station Type Date Time Source
KDFW METAR 2018/12/18 10:53 UTC NOAA

KDFW 181053Z 20004KT 10SM FEW180 FEW250 04/02 A3009 RMK AO2 SLP188 T00390022


Station Type Date Time Source
KDFW Decoded METAR 2018/12/18 10:53 UTC NOAA

DALLAS/FT. WORTH INTERNATIONAL AIRPORT , TX, United States (KDFW) 32-54N 097-02W 174M
Dec 18, 2018 - 05:53 AM EST / 2018.12.18 1053 UTC
Wind: from the SSW (200 degrees) at 5 MPH (4 KT):0
Visibility: 10 mile(s):0
Sky conditions: mostly clear
Temperature: 39.0 F (3.9 C)
Dew Point: 36.0 F (2.2 C)
Relative Humidity: 88%
Pressure (altimeter): 30.09 in. Hg (1018 hPa)
ob: KDFW 181053Z 20004KT 10SM FEW180 FEW250 04/02 A3009 RMK AO2 SLP188 T00390022
cycle: 11

Station Type Date Time Source
KDFW TAF 2018/12/18 09:12 UTC NOAA

TAF
AMD KDFW 180909Z 1809/1912 VRB02KT P6SM FEW200
FM181100 14004KT 2SM BR SCT250
TEMPO 1811/1814 1SM BR
FM181500 16007KT P6SM SCT250
FM190600 16005KT P6SM VCSH BKN120


Example: see airport list